createdAt,value
2018-02-03T00:00:46.895Z,99.99
2018-02-03T00:01:52.421Z,99.99
2018-02-03T00:02:57.953Z,99.99
2018-02-03T00:04:03.484Z,99.99
2018-02-03T00:05:09.004Z,99.99
2018-02-03T00:06:14.532Z,99.99
2018-02-03T00:07:20.069Z,99.99
2018-02-03T00:08:25.593Z,99.99
2018-02-03T00:09:31.124Z,99.99
2018-02-03T00:10:36.673Z,99.99
2018-02-03T00:11:42.183Z,99.99
2018-02-03T00:12:47.721Z,99.99
2018-02-03T00:13:53.248Z,99.99
2018-02-03T00:14:58.772Z,99.99
2018-02-03T00:16:04.308Z,99.99
2018-02-03T00:17:09.842Z,99.99
2018-02-03T00:18:15.363Z,99.99
2018-02-03T00:19:20.896Z,99.99
2018-02-03T00:20:26.423Z,99.99
2018-02-03T00:21:31.958Z,99.99
2018-02-03T00:22:37.483Z,99.99
2018-02-03T00:23:43.015Z,99.99
2018-02-03T00:24:48.547Z,99.99
2018-02-03T00:25:54.070Z,99.66
2018-02-03T00:26:59.601Z,99.48
2018-02-03T00:28:05.133Z,99.57
2018-02-03T00:29:10.663Z,99.57
2018-02-03T00:30:16.201Z,99.57
2018-02-03T00:31:21.729Z,99.85
2018-02-03T00:32:27.270Z,99.57
2018-02-03T00:33:32.781Z,99.57
2018-02-03T00:34:38.313Z,99.38
2018-02-03T00:35:43.850Z,99.48
2018-02-03T00:36:49.371Z,98.91
2018-02-03T00:37:54.904Z,99.38
2018-02-03T00:39:00.436Z,99.29
2018-02-03T00:40:05.959Z,99.10
2018-02-03T00:41:11.493Z,99.01
2018-02-03T00:42:17.026Z,99.01
2018-02-03T00:43:22.554Z,99.01
2018-02-03T00:44:28.086Z,98.82
2018-02-03T00:45:33.612Z,98.72
2018-02-03T00:46:39.145Z,98.63
2018-02-03T00:47:44.671Z,98.63
2018-02-03T00:48:50.200Z,99.29
2018-02-03T00:49:55.737Z,99.01
2018-02-03T00:51:01.256Z,99.01
2018-02-03T00:52:06.791Z,99.10
2018-02-03T00:53:12.328Z,99.10
2018-02-03T00:54:17.848Z,99.01
2018-02-03T00:55:23.382Z,99.19
2018-02-03T00:56:28.911Z,99.29
2018-02-03T00:57:34.440Z,99.29
2018-02-03T00:58:39.964Z,98.91
2018-02-03T00:59:45.499Z,99.10
2018-02-03T01:00:51.031Z,98.82
2018-02-03T01:01:56.559Z,99.38
2018-02-03T01:03:02.090Z,99.01
2018-02-03T01:04:07.624Z,99.01
2018-02-03T01:05:13.153Z,99.01
2018-02-03T01:06:18.682Z,99.01
2018-02-03T01:07:24.219Z,99.10
2018-02-03T01:08:29.736Z,98.06
2018-02-03T01:09:35.265Z,98.44
2018-02-03T01:10:40.805Z,98.44
2018-02-03T01:11:46.331Z,98.53
2018-02-03T01:12:51.859Z,97.77
2018-02-03T01:13:57.392Z,97.72
2018-02-03T01:15:02.913Z,98.06
2018-02-03T01:16:08.447Z,97.58
2018-02-03T01:17:13.979Z,97.49
2018-02-03T01:18:19.507Z,97.72
2018-02-03T01:19:25.035Z,97.82
2018-02-03T01:20:30.562Z,98.01
2018-02-03T01:21:36.098Z,97.72
2018-02-03T01:22:41.623Z,97.63
2018-02-03T01:23:47.152Z,97.25
2018-02-03T01:24:52.681Z,97.30
2018-02-03T01:25:58.214Z,97.34
2018-02-03T01:27:03.740Z,96.83
2018-02-03T01:28:09.269Z,97.34
2018-02-03T01:29:14.810Z,97.02
2018-02-03T01:30:20.331Z,96.97
2018-02-03T01:31:25.859Z,97.63
2018-02-03T01:32:31.387Z,97.11
2018-02-03T01:33:36.918Z,97.77
2018-02-03T01:34:42.450Z,97.39
2018-02-03T01:35:47.977Z,97.34
2018-02-03T01:36:53.503Z,97.49
2018-02-03T01:37:59.037Z,97.25
2018-02-03T01:39:04.569Z,97.34
2018-02-03T01:40:10.097Z,96.50
2018-02-03T01:41:15.625Z,96.21
2018-02-03T01:42:21.155Z,96.12
2018-02-03T01:43:26.682Z,95.93
2018-02-03T01:44:32.220Z,95.83
2018-02-03T01:45:37.747Z,96.31
2018-02-03T01:46:43.275Z,96.31
2018-02-03T01:47:48.800Z,96.31
2018-02-03T01:48:54.335Z,96.21
2018-02-03T01:49:59.858Z,96.21
2018-02-03T01:51:05.434Z,96.12
2018-02-03T01:52:10.925Z,95.64
2018-02-03T01:53:16.453Z,96.31
2018-02-03T01:54:21.981Z,95.93
2018-02-03T01:55:27.508Z,96.31
2018-02-03T01:56:33.035Z,96.31
2018-02-03T01:57:38.562Z,96.31
2018-02-03T01:58:44.113Z,96.12
2018-02-03T01:59:49.622Z,96.21
2018-02-03T02:00:55.151Z,96.12
2018-02-03T02:02:00.685Z,95.93
2018-02-03T02:03:06.221Z,96.59
2018-02-03T02:04:11.742Z,96.59
2018-02-03T02:05:17.268Z,96.97
2018-02-03T02:06:22.798Z,97.34
2018-02-03T02:07:28.330Z,97.63
2018-02-03T02:08:33.868Z,97.53
2018-02-03T02:09:39.386Z,97.63
2018-02-03T02:10:44.913Z,97.72
2018-02-03T02:11:50.451Z,98.39
2018-02-03T02:12:55.980Z,98.86
2018-02-03T02:14:01.502Z,99.15
2018-02-03T02:15:07.031Z,99.05
2018-02-03T02:16:12.564Z,99.15
2018-02-03T02:17:18.092Z,99.15
2018-02-03T02:18:23.622Z,99.15
2018-02-03T02:19:29.214Z,98.96
2018-02-03T02:20:34.677Z,99.24
2018-02-03T02:21:40.212Z,99.24
2018-02-03T02:22:45.737Z,99.05
2018-02-03T02:23:51.271Z,99.05
2018-02-03T02:24:56.796Z,98.67
2018-02-03T02:26:02.417Z,98.10
2018-02-03T02:27:07.851Z,98.67
2018-02-03T02:28:13.380Z,98.77
2018-02-03T02:29:18.910Z,98.77
2018-02-03T02:30:24.448Z,98.29
2018-02-03T02:31:29.973Z,98.20
2018-02-03T02:32:35.500Z,97.82
2018-02-03T02:33:41.033Z,97.63
2018-02-03T02:34:46.559Z,97.82
2018-02-03T02:35:52.088Z,97.82
2018-02-03T02:36:57.616Z,98.29
2018-02-03T02:38:03.141Z,98.48
2018-02-03T02:39:08.675Z,98.39
2018-02-03T02:40:14.200Z,98.77
2018-02-03T02:41:19.732Z,98.77
2018-02-03T02:42:25.261Z,98.96
2018-02-03T02:43:30.791Z,99.80
2018-02-03T02:44:36.323Z,99.52
2018-02-03T02:45:41.847Z,99.52
2018-02-03T02:46:47.374Z,99.24
2018-02-03T02:47:52.903Z,99.28
2018-02-03T02:48:58.442Z,99.38
2018-02-03T02:50:03.967Z,99.85
2018-02-03T02:51:09.492Z,99.57
2018-02-03T02:52:15.022Z,99.19
2018-02-03T02:53:20.550Z,99.38
2018-02-03T02:54:26.079Z,98.90
2018-02-03T02:55:31.607Z,99.19
2018-02-03T02:56:37.136Z,98.81
2018-02-03T02:57:42.668Z,99.19
2018-02-03T02:58:48.198Z,99.57
2018-02-03T02:59:53.719Z,99.57
2018-02-03T03:00:59.251Z,99.38
2018-02-03T03:02:04.779Z,99.38
2018-02-03T03:03:10.317Z,99.76
2018-02-03T03:04:15.839Z,99.66
2018-02-03T03:05:21.368Z,99.38
2018-02-03T03:06:26.900Z,99.99
2018-02-03T03:07:32.424Z,99.99
2018-02-03T03:08:37.955Z,99.99
2018-02-03T03:09:43.494Z,99.95
2018-02-03T03:10:49.012Z,99.99
2018-02-03T03:11:54.542Z,99.99
2018-02-03T03:13:00.073Z,99.99
2018-02-03T03:14:05.596Z,99.99
2018-02-03T03:15:11.126Z,99.99
2018-02-03T03:16:16.659Z,99.99
2018-02-03T03:17:22.192Z,99.99
2018-02-03T03:18:27.719Z,99.99
2018-02-03T03:19:33.243Z,99.99
2018-02-03T03:20:38.772Z,99.57
2018-02-03T03:21:44.300Z,99.47
2018-02-03T03:22:49.827Z,99.57
2018-02-03T03:23:55.366Z,99.66
2018-02-03T03:25:00.890Z,99.57
2018-02-03T03:26:06.416Z,99.38
2018-02-03T03:27:11.951Z,99.47
2018-02-03T03:28:17.477Z,99.47
2018-02-03T03:29:23.009Z,99.38
2018-02-03T03:30:28.539Z,99.47
2018-02-03T03:31:34.062Z,99.57
2018-02-03T03:32:39.592Z,99.38
2018-02-03T03:33:45.121Z,99.47
2018-02-03T03:34:50.648Z,99.38
2018-02-03T03:35:56.180Z,99.76
2018-02-03T03:37:01.704Z,99.38
2018-02-03T03:38:07.241Z,99.57
2018-02-03T03:39:12.765Z,99.28
2018-02-03T03:40:18.296Z,99.47
2018-02-03T03:41:23.831Z,99.28
2018-02-03T03:42:29.348Z,99.47
2018-02-03T03:43:34.879Z,99.19
2018-02-03T03:44:40.407Z,99.38
2018-02-03T03:45:45.936Z,99.00
2018-02-03T03:46:51.469Z,99.19
2018-02-03T03:47:56.991Z,99.00
2018-02-03T03:49:02.526Z,99.19
2018-02-03T03:50:08.056Z,99.00
2018-02-03T03:51:13.585Z,98.33
2018-02-03T03:52:19.113Z,98.24
2018-02-03T03:53:24.639Z,97.67
2018-02-03T03:54:30.168Z,96.92
2018-02-03T03:55:35.696Z,97.30
2018-02-03T03:56:41.229Z,97.30
2018-02-03T03:57:46.752Z,97.30
2018-02-03T03:58:52.378Z,97.11
2018-02-03T03:59:57.809Z,97.49
2018-02-03T04:01:03.339Z,97.20
2018-02-03T04:02:08.875Z,97.20
2018-02-03T04:03:14.403Z,96.92
2018-02-03T04:04:19.928Z,97.30
2018-02-03T04:05:25.460Z,97.77
2018-02-03T04:06:30.982Z,97.77
2018-02-03T04:07:36.522Z,97.01
2018-02-03T04:08:42.048Z,96.64
2018-02-03T04:09:47.580Z,96.73
2018-02-03T04:10:53.101Z,96.92
2018-02-03T04:11:58.626Z,97.11
2018-02-03T04:13:04.159Z,97.30
2018-02-03T04:14:09.686Z,97.20
2018-02-03T04:15:15.215Z,97.49
2018-02-03T04:16:20.745Z,97.67
2018-02-03T04:17:26.270Z,97.58
2018-02-03T04:18:31.802Z,97.58
2018-02-03T04:19:37.329Z,98.05
2018-02-03T04:20:42.862Z,97.49
2018-02-03T04:21:48.385Z,97.77
2018-02-03T04:22:53.918Z,97.30
2018-02-03T04:23:59.453Z,97.39
2018-02-03T04:25:04.970Z,97.39
2018-02-03T04:26:10.510Z,98.05
2018-02-03T04:27:16.036Z,98.05
2018-02-03T04:28:21.561Z,97.86
2018-02-03T04:29:27.089Z,97.77
2018-02-03T04:30:32.619Z,98.33
2018-02-03T04:31:38.153Z,98.24
2018-02-03T04:32:43.677Z,98.33
2018-02-03T04:33:49.212Z,98.24
2018-02-03T04:34:54.737Z,98.24
2018-02-03T04:36:00.261Z,97.67
2018-02-03T04:37:05.791Z,98.24
2018-02-03T04:38:11.318Z,98.52
2018-02-03T04:39:16.854Z,97.67
2018-02-03T04:40:22.380Z,98.24
2018-02-03T04:41:27.906Z,97.86
2018-02-03T04:42:33.432Z,97.96
2018-02-03T04:43:38.963Z,97.49
2018-02-03T04:44:44.492Z,96.92
2018-02-03T04:45:50.021Z,96.92
2018-02-03T04:46:55.559Z,96.92
2018-02-03T04:48:01.084Z,97.01
2018-02-03T04:49:06.611Z,97.67
2018-02-03T04:50:12.132Z,97.77
2018-02-03T04:51:17.664Z,97.39
2018-02-03T04:52:23.194Z,98.05
2018-02-03T04:53:28.723Z,97.30
2018-02-03T04:54:34.253Z,96.64
2018-02-03T04:55:39.779Z,96.54
2018-02-03T04:56:45.307Z,96.92
2018-02-03T04:57:50.838Z,97.11
2018-02-03T04:58:56.362Z,97.20
2018-02-03T05:00:01.893Z,96.64
2018-02-03T05:01:07.422Z,97.11
2018-02-03T05:02:12.959Z,96.07
2018-02-03T05:03:18.481Z,95.88
2018-02-03T05:04:24.011Z,95.78
2018-02-03T05:05:29.534Z,95.59
2018-02-03T05:06:35.071Z,96.16
2018-02-03T05:07:40.595Z,95.88
2018-02-03T05:08:46.136Z,95.69
2018-02-03T05:09:51.652Z,95.21
2018-02-03T05:10:57.183Z,95.03
2018-02-03T05:12:02.707Z,94.65
2018-02-03T05:13:08.233Z,93.99
2018-02-03T05:14:13.772Z,94.18
2018-02-03T05:15:19.293Z,94.08
2018-02-03T05:16:24.822Z,94.56
2018-02-03T05:17:30.352Z,94.93
2018-02-03T05:18:35.883Z,95.03
2018-02-03T05:19:41.411Z,95.40
2018-02-03T05:20:46.940Z,95.50
2018-02-03T05:21:52.463Z,95.03
2018-02-03T05:22:57.993Z,95.40
2018-02-03T05:24:03.523Z,95.59
2018-02-03T05:25:09.051Z,95.50
2018-02-03T05:26:14.585Z,95.40
2018-02-03T05:27:20.107Z,96.16
2018-02-03T05:28:25.635Z,95.59
2018-02-03T05:29:31.171Z,95.50
2018-02-03T05:30:36.693Z,95.31
2018-02-03T05:31:42.227Z,95.21
2018-02-03T05:32:47.751Z,95.50
2018-02-03T05:33:53.284Z,95.31
2018-02-03T05:34:58.811Z,95.69
2018-02-03T05:36:04.340Z,96.16
2018-02-03T05:37:09.864Z,96.16
2018-02-03T05:38:15.394Z,95.59
2018-02-03T05:39:20.925Z,95.59
2018-02-03T05:40:26.459Z,95.03
2018-02-03T05:41:31.980Z,95.40
2018-02-03T05:42:37.510Z,95.12
2018-02-03T05:43:43.040Z,95.21
2018-02-03T05:44:48.570Z,94.93
2018-02-03T05:45:54.095Z,94.84
2018-02-03T05:46:59.622Z,94.84
2018-02-03T05:48:05.153Z,95.31
2018-02-03T05:49:10.678Z,95.21
2018-02-03T05:50:16.214Z,94.46
2018-02-03T05:51:21.740Z,94.27
2018-02-03T05:52:27.272Z,94.08
2018-02-03T05:53:32.794Z,93.99
2018-02-03T05:54:38.331Z,93.99
2018-02-03T05:55:43.867Z,94.27
2018-02-03T05:56:49.382Z,93.99
2018-02-03T05:57:54.913Z,94.18
2018-02-03T05:59:00.443Z,94.08
2018-02-03T06:00:05.973Z,93.61
2018-02-03T06:01:11.502Z,93.61
2018-02-03T06:02:17.030Z,92.85
2018-02-03T06:03:22.554Z,93.04
2018-02-03T06:04:28.087Z,93.13
2018-02-03T06:05:33.608Z,93.13
2018-02-03T06:06:39.141Z,93.13
2018-02-03T06:07:44.669Z,93.32
2018-02-03T06:08:50.196Z,93.32
2018-02-03T06:09:55.728Z,93.51
2018-02-03T06:11:01.255Z,92.94
2018-02-03T06:12:06.779Z,93.04
2018-02-03T06:13:12.312Z,93.13
2018-02-03T06:14:17.842Z,92.76
2018-02-03T06:15:23.373Z,92.19
2018-02-03T06:16:28.895Z,92.19
2018-02-03T06:17:34.422Z,93.13
2018-02-03T06:18:39.956Z,92.85
2018-02-03T06:19:45.488Z,93.99
2018-02-03T06:20:51.016Z,93.99
2018-02-03T06:21:56.541Z,94.18
2018-02-03T06:23:02.069Z,92.94
2018-02-03T06:24:07.598Z,93.23
2018-02-03T06:25:13.123Z,93.42
2018-02-03T06:26:18.652Z,92.85
2018-02-03T06:27:24.182Z,92.76
2018-02-03T06:28:29.708Z,93.23
2018-02-03T06:29:35.242Z,92.85
2018-02-03T06:30:40.763Z,93.13
2018-02-03T06:31:46.300Z,93.89
2018-02-03T06:32:51.827Z,93.99
2018-02-03T06:33:57.352Z,93.13
2018-02-03T06:35:02.887Z,92.94
2018-02-03T06:36:08.416Z,93.42
2018-02-03T06:37:13.938Z,94.18
2018-02-03T06:38:19.469Z,93.99
2018-02-03T06:39:24.992Z,93.80
2018-02-03T06:40:30.521Z,93.89
2018-02-03T06:41:36.058Z,93.61
2018-02-03T06:42:41.582Z,93.13
2018-02-03T06:43:47.114Z,93.23
2018-02-03T06:44:52.637Z,93.23
2018-02-03T06:45:58.170Z,93.13
2018-02-03T06:47:03.693Z,93.13
2018-02-03T06:48:09.221Z,93.32
2018-02-03T06:49:14.747Z,93.04
2018-02-03T06:50:20.281Z,93.04
2018-02-03T06:51:25.809Z,92.76
2018-02-03T06:52:31.347Z,93.42
2018-02-03T06:53:36.882Z,94.18
2018-02-03T06:54:42.392Z,93.13
2018-02-03T06:55:47.923Z,93.04
2018-02-03T06:56:53.449Z,92.94
2018-02-03T06:57:58.983Z,92.76
2018-02-03T06:59:04.516Z,92.85
2018-02-03T07:00:10.041Z,92.66
2018-02-03T07:01:15.565Z,93.13
2018-02-03T07:02:21.091Z,93.13
2018-02-03T07:03:26.620Z,92.66
2018-02-03T07:04:32.163Z,92.76
2018-02-03T07:05:37.677Z,93.32
2018-02-03T07:06:43.214Z,93.04
2018-02-03T07:07:48.737Z,93.04
2018-02-03T07:08:54.262Z,92.85
2018-02-03T07:09:59.791Z,92.47
2018-02-03T07:11:05.323Z,92.76
2018-02-03T07:12:10.852Z,93.13
2018-02-03T07:13:16.385Z,93.04
2018-02-03T07:14:21.911Z,92.47
2018-02-03T07:15:27.440Z,92.66
2018-02-03T07:16:32.961Z,92.19
2018-02-03T07:17:38.495Z,92.10
2018-02-03T07:18:44.025Z,92.19
2018-02-03T07:19:49.550Z,92.47
2018-02-03T07:20:55.084Z,92.29
2018-02-03T07:22:00.610Z,92.66
2018-02-03T07:23:06.135Z,92.85
2018-02-03T07:24:11.665Z,92.38
2018-02-03T07:25:17.192Z,92.38
2018-02-03T07:26:22.721Z,91.81
2018-02-03T07:27:28.254Z,92.00
2018-02-03T07:28:33.778Z,92.76
2018-02-03T07:29:39.304Z,93.13
2018-02-03T07:30:44.846Z,93.13
2018-02-03T07:31:50.362Z,93.32
2018-02-03T07:32:55.890Z,93.23
2018-02-03T07:34:01.417Z,93.23
2018-02-03T07:35:06.944Z,92.94
2018-02-03T07:36:12.474Z,92.47
2018-02-03T07:37:18.007Z,91.91
2018-02-03T07:38:23.536Z,91.43
2018-02-03T07:39:29.068Z,91.05
2018-02-03T07:40:34.597Z,92.19
2018-02-03T07:41:40.119Z,91.05
2018-02-03T07:42:45.654Z,90.39
2018-02-03T07:43:51.175Z,90.86
2018-02-03T07:44:56.705Z,91.24
2018-02-03T07:46:02.233Z,92.10
2018-02-03T07:47:07.763Z,92.19
2018-02-03T07:48:13.294Z,92.66
2018-02-03T07:49:18.817Z,92.47
2018-02-03T07:50:24.348Z,92.94
2018-02-03T07:51:29.878Z,92.57
2018-02-03T07:52:35.404Z,92.00
2018-02-03T07:53:40.934Z,91.81
2018-02-03T07:54:46.462Z,91.72
2018-02-03T07:55:52.000Z,91.72
2018-02-03T07:56:57.518Z,91.24
2018-02-03T07:58:03.057Z,91.24
2018-02-03T07:59:08.577Z,91.05
2018-02-03T08:00:14.143Z,91.15
2018-02-03T08:01:19.646Z,91.62
2018-02-03T08:02:25.166Z,91.62
2018-02-03T08:03:30.692Z,92.19
2018-02-03T08:04:36.219Z,92.10
2018-02-03T08:05:41.751Z,92.76
2018-02-03T08:06:47.287Z,92.76
2018-02-03T08:07:52.807Z,92.57
2018-02-03T08:08:58.333Z,92.66
2018-02-03T08:10:03.867Z,92.38
2018-02-03T08:11:09.390Z,92.19
2018-02-03T08:12:14.924Z,91.81
2018-02-03T08:13:20.448Z,92.10
2018-02-03T08:14:25.980Z,91.05
2018-02-03T08:15:31.512Z,91.43
2018-02-03T08:16:37.034Z,91.62
2018-02-03T08:17:42.566Z,92.19
2018-02-03T08:18:48.090Z,92.76
2018-02-03T08:19:53.626Z,92.85
2018-02-03T08:20:59.150Z,92.00
2018-02-03T08:22:04.677Z,91.72
2018-02-03T08:23:10.209Z,91.81
2018-02-03T08:24:15.739Z,91.72
2018-02-03T08:25:21.263Z,91.72
2018-02-03T08:26:26.790Z,92.19
2018-02-03T08:27:32.331Z,91.62
2018-02-03T08:28:37.856Z,91.72
2018-02-03T08:29:43.381Z,91.72
2018-02-03T08:30:48.907Z,91.62
2018-02-03T08:31:54.469Z,92.00
2018-02-03T08:32:59.974Z,92.19
2018-02-03T08:34:05.494Z,92.29
2018-02-03T08:35:11.022Z,92.57
2018-02-03T08:36:16.558Z,92.00
2018-02-03T08:37:22.086Z,92.19
2018-02-03T08:38:27.614Z,92.00
2018-02-03T08:39:33.142Z,92.00
2018-02-03T08:40:38.742Z,91.62
2018-02-03T08:41:44.200Z,91.72
2018-02-03T08:42:49.739Z,91.24
2018-02-03T08:43:55.257Z,91.81
2018-02-03T08:45:00.783Z,91.81
2018-02-03T08:46:06.316Z,91.72
2018-02-03T08:47:11.837Z,91.43
2018-02-03T08:48:17.370Z,92.00
2018-02-03T08:49:22.896Z,91.62
2018-02-03T08:50:28.431Z,92.10
2018-02-03T08:51:33.954Z,91.81
2018-02-03T08:52:39.483Z,91.91
2018-02-03T08:53:45.008Z,91.91
2018-02-03T08:54:50.542Z,92.00
2018-02-03T08:55:56.065Z,92.57
2018-02-03T08:57:01.597Z,92.29
2018-02-03T08:58:07.130Z,92.00
2018-02-03T08:59:12.656Z,91.91
2018-02-03T09:00:18.182Z,92.00
2018-02-03T09:01:23.713Z,91.81
2018-02-03T09:02:29.250Z,91.05
2018-02-03T09:03:34.807Z,90.86
2018-02-03T09:04:40.294Z,90.86
2018-02-03T09:05:45.823Z,90.86
2018-02-03T09:06:51.357Z,90.77
2018-02-03T09:07:56.885Z,90.49
2018-02-03T09:09:02.416Z,91.24
2018-02-03T09:10:07.939Z,91.72
2018-02-03T09:11:13.467Z,90.58
2018-02-03T09:12:19.000Z,89.92
2018-02-03T09:13:24.523Z,90.11
2018-02-03T09:14:30.054Z,89.83
2018-02-03T09:15:35.581Z,89.83
2018-02-03T09:16:41.112Z,90.20
2018-02-03T09:17:46.641Z,89.92
2018-02-03T09:18:52.167Z,90.39
2018-02-03T09:19:57.700Z,89.54
2018-02-03T09:21:03.254Z,89.92
2018-02-03T09:22:08.760Z,90.01
2018-02-03T09:23:14.282Z,89.83
2018-02-03T09:24:19.818Z,89.92
2018-02-03T09:25:25.341Z,90.11
2018-02-03T09:26:30.871Z,90.01
2018-02-03T09:27:36.400Z,90.01
2018-02-03T09:28:41.933Z,89.73
2018-02-03T09:29:47.452Z,89.73
2018-02-03T09:30:52.983Z,89.92
2018-02-03T09:31:58.520Z,90.11
2018-02-03T09:33:04.045Z,90.30
2018-02-03T09:35:41.300Z,89.92
2018-02-03T09:36:46.792Z,89.92
2018-02-03T09:37:52.321Z,89.36
2018-02-03T09:38:57.850Z,90.30
2018-02-03T09:40:03.371Z,90.01
2018-02-03T09:41:08.901Z,90.39
2018-02-03T09:42:14.428Z,89.73
2018-02-03T09:43:19.961Z,88.98
2018-02-03T09:44:25.488Z,89.73
2018-02-03T09:45:31.024Z,89.36
2018-02-03T09:46:36.544Z,89.73
2018-02-03T09:47:42.069Z,89.64
2018-02-03T09:48:47.601Z,90.30
2018-02-03T09:49:53.125Z,89.73
2018-02-03T09:50:58.654Z,89.64
2018-02-03T09:52:04.182Z,90.30
2018-02-03T09:53:09.720Z,90.01
2018-02-03T09:54:15.254Z,90.30
2018-02-03T09:55:20.771Z,89.92
2018-02-03T09:56:26.305Z,89.26
2018-02-03T09:57:31.830Z,89.64
2018-02-03T09:58:37.361Z,89.07
2018-02-03T09:59:42.893Z,89.92
2018-02-03T10:00:48.412Z,90.20
2018-02-03T10:01:54.020Z,90.01
2018-02-03T10:02:59.474Z,89.83
2018-02-03T10:04:05.002Z,88.03
2018-02-03T10:05:10.525Z,88.69
2018-02-03T10:06:16.058Z,88.22
2018-02-03T10:07:21.586Z,87.46
2018-02-03T10:08:27.112Z,87.37
2018-02-03T10:09:32.641Z,88.12
2018-02-03T10:10:38.170Z,88.12
2018-02-03T10:11:43.700Z,87.37
2018-02-03T10:12:49.226Z,88.12
2018-02-03T10:13:54.763Z,88.41
2018-02-03T10:15:00.283Z,88.12
2018-02-03T10:16:05.815Z,88.41
2018-02-03T10:17:11.347Z,89.36
2018-02-03T10:18:16.877Z,89.83
2018-02-03T10:19:22.406Z,88.69
2018-02-03T10:20:27.933Z,88.98
2018-02-03T10:21:33.461Z,88.12
2018-02-03T10:22:38.984Z,88.03
2018-02-03T10:23:44.518Z,88.03
2018-02-03T10:24:50.045Z,87.74
2018-02-03T10:25:55.572Z,87.27
2018-02-03T10:27:01.102Z,87.37
2018-02-03T10:28:06.628Z,87.65
2018-02-03T10:29:12.167Z,86.61
2018-02-03T10:30:17.687Z,85.76
2018-02-03T10:31:23.217Z,86.52
2018-02-03T10:32:28.750Z,86.61
2018-02-03T10:33:34.281Z,85.66
2018-02-03T10:34:39.802Z,86.99
2018-02-03T10:35:45.343Z,86.71
2018-02-03T10:36:50.859Z,86.90
2018-02-03T10:37:56.393Z,86.52
2018-02-03T10:39:01.918Z,86.04
2018-02-03T10:40:07.447Z,85.76
2018-02-03T10:41:12.975Z,85.76
2018-02-03T10:42:18.502Z,85.85
2018-02-03T10:43:24.042Z,86.52
2018-02-03T10:44:29.559Z,86.99
2018-02-03T10:45:35.090Z,86.80
2018-02-03T10:46:40.618Z,85.95
2018-02-03T10:47:46.149Z,86.04
2018-02-03T10:48:51.674Z,86.71
2018-02-03T10:49:57.201Z,86.52
2018-02-03T10:51:02.736Z,86.99
2018-02-03T10:52:08.260Z,86.80
2018-02-03T10:53:13.786Z,87.46
2018-02-03T10:54:19.320Z,87.18
2018-02-03T10:55:24.852Z,86.33
2018-02-03T10:56:30.381Z,86.71
2018-02-03T10:57:35.907Z,86.42
2018-02-03T10:58:41.431Z,86.71
2018-02-03T10:59:46.961Z,86.71
2018-02-03T11:00:52.492Z,87.18
2018-02-03T11:01:58.020Z,87.27
2018-02-03T11:03:03.550Z,87.18
2018-02-03T11:04:09.076Z,85.95
2018-02-03T11:05:14.604Z,85.95
2018-02-03T11:06:20.141Z,85.85
2018-02-03T11:07:25.668Z,85.38
2018-02-03T11:08:31.199Z,85.95
2018-02-03T11:09:36.723Z,86.52
2018-02-03T11:10:42.249Z,87.46
2018-02-03T11:11:47.782Z,87.37
2018-02-03T11:12:53.318Z,87.37
2018-02-03T11:13:58.840Z,86.80
2018-02-03T11:15:04.371Z,86.33
2018-02-03T11:16:09.900Z,85.57
2018-02-03T11:17:15.423Z,85.00
2018-02-03T11:18:20.952Z,85.66
2018-02-03T11:19:26.480Z,86.14
2018-02-03T11:20:32.008Z,85.85
2018-02-03T11:21:37.545Z,85.76
2018-02-03T11:22:43.070Z,85.95
2018-02-03T11:23:48.601Z,85.19
2018-02-03T11:24:54.129Z,85.10
2018-02-03T11:25:59.654Z,85.38
2018-02-03T11:27:05.201Z,86.33
2018-02-03T11:28:10.716Z,85.66
2018-02-03T11:29:16.276Z,86.52
2018-02-03T11:30:21.779Z,87.46
2018-02-03T11:31:27.297Z,86.99
2018-02-03T11:32:32.832Z,86.90
2018-02-03T11:35:10.053Z,87.65
2018-02-03T11:36:15.556Z,87.84
2018-02-03T11:37:21.082Z,88.03
2018-02-03T11:38:26.612Z,87.93
2018-02-03T11:39:32.141Z,87.65
2018-02-03T11:40:37.668Z,88.41
2018-02-03T11:41:43.193Z,88.41
2018-02-03T11:42:48.725Z,88.31
2018-02-03T11:43:54.255Z,88.88
2018-02-03T11:44:59.789Z,88.41
2018-02-03T11:46:05.311Z,88.60
2018-02-03T11:47:10.833Z,89.17
2018-02-03T11:48:16.368Z,89.26
2018-02-03T11:49:21.891Z,89.73
2018-02-03T11:50:27.424Z,90.20
2018-02-03T11:51:32.943Z,89.92
2018-02-03T11:52:38.473Z,89.83
2018-02-03T11:53:44.012Z,88.98
2018-02-03T11:54:49.532Z,88.98
2018-02-03T11:55:55.055Z,88.31
2018-02-03T11:57:00.583Z,89.36
2018-02-03T11:58:06.113Z,89.92
2018-02-03T11:59:11.646Z,89.73
2018-02-03T12:00:17.200Z,90.30
2018-02-03T12:01:22.695Z,90.01
2018-02-03T12:02:28.224Z,90.39
2018-02-03T12:03:33.755Z,90.30
2018-02-03T12:04:39.282Z,90.86
2018-02-03T12:05:44.838Z,90.96
2018-02-03T12:06:50.340Z,90.39
2018-02-03T12:07:55.867Z,90.30
2018-02-03T12:09:01.396Z,89.26
2018-02-03T12:10:06.929Z,88.50
2018-02-03T12:11:12.457Z,88.03
2018-02-03T12:12:17.986Z,89.07
2018-02-03T12:13:23.512Z,89.83
2018-02-03T12:14:29.041Z,89.73
2018-02-03T12:15:34.568Z,88.79
2018-02-03T12:16:40.102Z,89.92
2018-02-03T12:17:45.627Z,88.50
2018-02-03T12:18:51.154Z,88.03
2018-02-03T12:19:56.691Z,89.07
2018-02-03T12:21:02.216Z,89.26
2018-02-03T12:22:07.747Z,88.50
2018-02-03T12:23:13.272Z,88.50
2018-02-03T12:24:18.798Z,89.07
2018-02-03T12:25:24.326Z,88.31
2018-02-03T12:26:29.857Z,86.80
2018-02-03T12:27:35.384Z,87.46
2018-02-03T12:28:40.913Z,88.12
2018-02-03T12:29:46.446Z,87.84
2018-02-03T12:30:51.973Z,88.03
2018-02-03T12:31:57.505Z,88.60
2018-02-03T12:33:03.029Z,88.03
2018-02-03T12:34:08.560Z,87.93
2018-02-03T12:35:14.176Z,87.46
2018-02-03T12:36:19.624Z,87.46
2018-02-03T12:38:56.832Z,86.61
2018-02-03T12:40:02.344Z,87.18
2018-02-03T12:42:00.744Z,87.65
2018-02-03T12:43:06.264Z,87.18
2018-02-03T12:44:11.796Z,86.14
2018-02-03T12:45:17.327Z,86.14
2018-02-03T12:46:22.849Z,86.33
2018-02-03T12:47:28.380Z,87.46
2018-02-03T12:48:33.909Z,87.37
2018-02-03T12:49:39.433Z,87.08
2018-02-03T12:50:44.964Z,85.95
2018-02-03T12:51:50.492Z,85.10
2018-02-03T12:52:56.021Z,85.85
2018-02-03T12:54:01.553Z,85.76
2018-02-03T12:55:07.079Z,85.57
2018-02-03T12:56:12.603Z,84.91
2018-02-03T12:57:18.135Z,85.28
2018-02-03T12:58:23.669Z,85.57
2018-02-03T12:59:29.190Z,86.80
2018-02-03T13:00:34.719Z,86.61
2018-02-03T13:01:40.310Z,85.57
2018-02-03T13:02:45.774Z,84.91
2018-02-03T13:03:51.305Z,84.16
2018-02-03T13:04:56.836Z,84.44
2018-02-03T13:06:02.388Z,84.81
2018-02-03T13:07:07.894Z,84.81
2018-02-03T13:08:13.430Z,84.34
2018-02-03T13:09:18.953Z,85.47
2018-02-03T13:10:24.483Z,85.76
2018-02-03T13:11:30.018Z,84.72
2018-02-03T13:12:35.538Z,84.81
2018-02-03T13:13:41.067Z,84.44
2018-02-03T13:14:46.617Z,84.34
2018-02-03T13:15:52.125Z,83.68
2018-02-03T13:16:57.660Z,83.40
2018-02-03T13:18:03.186Z,83.02
2018-02-03T13:19:08.716Z,84.06
2018-02-03T13:20:14.242Z,84.53
2018-02-03T13:21:19.779Z,84.63
2018-02-03T13:22:25.299Z,84.53
2018-02-03T13:23:30.837Z,82.45
2018-02-03T13:24:36.364Z,82.64
2018-02-03T13:25:41.893Z,84.16
2018-02-03T13:26:47.426Z,84.34
2018-02-03T13:27:52.945Z,83.97
2018-02-03T13:28:58.491Z,82.92
2018-02-03T13:30:04.006Z,82.07
2018-02-03T13:31:09.534Z,83.02
2018-02-03T13:32:15.064Z,82.26
2018-02-03T13:33:20.590Z,81.70
2018-02-03T13:34:26.123Z,81.41
2018-02-03T13:35:31.654Z,81.32
2018-02-03T13:36:37.189Z,82.17
2018-02-03T13:37:42.713Z,82.73
2018-02-03T13:38:48.237Z,83.49
2018-02-03T13:39:53.766Z,82.83
2018-02-03T13:40:59.294Z,82.83
2018-02-03T13:42:04.827Z,82.83
2018-02-03T13:43:10.354Z,82.54
2018-02-03T13:44:15.892Z,83.02
2018-02-03T13:45:21.410Z,83.30
2018-02-03T13:46:26.946Z,82.17
2018-02-03T13:47:32.475Z,82.17
2018-02-03T13:48:38.000Z,81.98
2018-02-03T13:49:43.526Z,82.54
2018-02-03T13:50:49.109Z,83.78
2018-02-03T13:51:54.584Z,84.25
2018-02-03T13:53:00.118Z,84.34
2018-02-03T13:54:05.642Z,83.87
2018-02-03T13:55:11.188Z,82.54
2018-02-03T13:56:16.705Z,82.54
2018-02-03T13:57:22.227Z,82.26
2018-02-03T13:58:27.782Z,82.54
2018-02-03T13:59:33.297Z,81.88
2018-02-03T14:00:38.821Z,82.54
2018-02-03T14:01:44.346Z,83.40
2018-02-03T14:02:49.877Z,83.30
2018-02-03T14:03:55.404Z,82.92
2018-02-03T14:05:00.935Z,82.17
2018-02-03T14:06:06.464Z,82.26
2018-02-03T14:07:11.992Z,82.92
2018-02-03T14:08:17.519Z,83.30
2018-02-03T14:09:23.051Z,82.73